Latest Weather Observations for Smithton

IDT60801

Issued at 7:35 pm EDT Friday 24 October 2014 (issued every 30 minutes, with the page automatically refreshed every 10 minutes)

About weather observations | Map of weather stations | Latest weather observations for TAS | Other Formats
Station Details ID: 091292 Name: SMITHTON AERODROME Lat: -40.83 Lon: 145.08 Height: 7.5 m
Data from the previous 72 hours. | See also: Recent months at Smithton
Date/Time
EDT
Temp
°C
App
Temp
°C
Dew
Point
Rel
Hum
%
Delta-T
°C
Wind Press
QNH
hPa
Press
MSL
hPa
Rain
since 9 am
mm
Dir
 
Spd
km/h
Gust
km/h
Spd
kts
Gust
kts
24/07:30pm 14.7 15.8 14.5 99 0.1 NNE 2 7 1 4 1010.8 - 0.0
24/07:00pm 14.8 13.8 14.6 99 0.1 NE 13 15 7 8 1010.8 - 0.0
24/06:30pm 15.0 13.7 14.8 99 0.1 NE 15 19 8 10 1010.5 - 0.0
24/06:00pm 15.3 13.3 15.0 98 0.2 ENE 19 26 10 14 1010.1 1010.1 0.0
24/05:30pm 15.7 12.8 15.1 96 0.3 ENE 24 35 13 19 1009.5 - 0.0
24/05:00pm 15.6 12.4 15.3 98 0.2 E 26 35 14 19 1009.5 - 0.0
24/04:30pm 15.6 12.3 15.0 96 0.3 E 26 37 14 20 1010.0 - 0.0
24/04:00pm 15.6 12.6 14.8 95 0.5 ENE 24 41 13 22 1010.6 - 0.0
24/03:30pm 15.8 11.3 14.8 94 0.6 E 32 46 17 25 1010.3 - 0.0
24/03:00pm 15.8 10.7 14.7 93 0.6 E 35 48 19 26 1010.6 1010.6 0.0
24/02:30pm 15.9 10.8 14.9 94 0.6 E 35 50 19 27 1011.1 - 0.0
24/02:01pm 15.6 9.9 14.3 92 0.7 E 37 56 20 30 1011.2 - 0.0
24/02:00pm 15.6 9.6 14.3 92 0.7 E 39 56 21 30 1011.1 - 0.0
24/01:38pm 15.5 9.9 14.4 93 0.6 E 37 56 20 30 1011.2 - 0.0
24/01:30pm 15.6 9.5 14.1 91 0.8 E 39 56 21 30 1011.2 - 0.0
24/01:16pm 15.4 8.8 13.8 90 0.9 E 41 59 22 32 1011.2 - 0.0
24/01:00pm 15.6 9.1 14.0 90 0.9 E 41 57 22 31 1011.7 - 0.0
24/12:37pm 15.6 10.0 13.4 87 1.2 E 35 54 19 29 1011.9 - 0.0
24/12:30pm 15.6 9.3 13.4 87 1.2 E 39 54 21 29 1011.8 - 0.0
24/12:08pm 15.5 9.1 13.2 86 1.3 E 39 57 21 31 1012.2 - 0.0
24/12:00pm 15.2 8.4 13.1 87 1.2 E 41 57 22 31 1012.2 1012.2 0.0
24/11:40am 14.7 7.7 12.6 87 1.1 E 41 59 22 32 1012.6 - 0.0
24/11:30am 14.9 8.3 12.6 86 1.3 E 39 56 21 30 1012.9 - 0.0
24/11:00am 14.8 7.7 12.1 84 1.5 E 41 61 22 33 1013.3 - 0.0
24/10:32am 14.7 6.9 11.7 82 1.6 E 44 63 24 34 1013.9 - 0.0
24/10:30am 14.9 7.4 12.0 83 1.6 E 43 59 23 32 1013.9 - 0.0
24/10:00am 13.6 5.8 11.1 85 1.3 E 43 63 23 34 1014.2 - 0.0
24/09:30am 13.5 6.0 11.0 85 1.3 E 41 59 22 32 1014.3 - 0.0
24/09:00am 12.6 4.6 10.3 86 1.2 E 43 61 23 33 1014.9 1014.9 0.0
24/08:40am 12.3 4.6 10.2 87 1.1 E 41 59 22 32 1015.1 - 0.0
24/08:30am 12.2 4.9 10.1 87 1.1 E 39 52 21 28 1015.5 - 0.0
24/08:01am 12.0 3.8 9.6 85 1.2 E 43 61 23 33 1015.3 - 0.0
24/08:00am 12.0 3.6 9.6 85 1.2 E 44 61 24 33 1015.3 - 0.0
24/07:30am 12.1 3.6 9.3 83 1.4 E 44 67 24 36 1015.6 - 0.0
24/07:25am 12.2 4.3 9.2 82 1.5 E 41 67 22 36 1015.4 - 0.0
24/07:00am 12.3 3.7 8.8 79 1.7 E 44 59 24 32 1016.0 - 0.0
24/06:44am 12.3 3.8 8.4 77 1.9 E 43 61 23 33 1015.9 - 0.0
24/06:30am 12.3 3.8 8.4 77 1.9 E 43 57 23 31 1016.1 - 0.0
24/06:00am 12.2 3.6 8.1 76 2.0 E 43 63 23 34 1016.5 1016.5 0.0
24/05:30am 12.2 3.5 7.7 74 2.2 E 43 63 23 34 1016.8 - 0.0
24/05:00am 12.2 3.5 7.7 74 2.2 E 43 63 23 34 1017.1 - 0.0
24/04:30am 12.1 4.9 7.8 75 2.1 E 35 57 19 31 1017.2 - 0.0
24/04:03am 12.2 4.0 8.1 76 2.0 E 41 59 22 32 1017.4 - 0.0
24/04:00am 12.3 3.7 8.2 76 2.0 E 43 59 23 32 1017.2 - 0.0
24/03:30am 12.2 4.0 8.1 76 2.0 E 41 65 22 35 1017.9 - 0.0
24/03:17am 12.2 4.4 8.3 77 1.9 E 39 57 21 31 1018.3 - 0.0
24/03:00am 12.2 4.0 8.1 76 2.0 E 41 57 22 31 1018.5 1018.5 0.0
24/02:34am 12.1 3.9 8.4 78 1.8 E 41 61 22 33 1018.8 - 0.0
24/02:30am 12.1 4.4 8.6 79 1.7 E 39 50 21 27 1018.9 - 0.0
24/02:01am 12.0 3.9 8.5 79 1.7 E 41 59 22 32 1019.1 - 0.0
24/02:00am 12.0 3.9 8.7 80 1.6 E 41 56 22 30 1019.3 - 0.0
24/01:37am 12.1 4.0 8.8 80 1.6 E 41 59 22 32 1019.8 - 0.0
24/01:30am 12.1 3.4 8.6 79 1.7 E 44 59 24 32 1019.9 - 0.0
24/01:01am 12.3 4.7 9.0 80 1.7 E 39 57 21 31 1020.5 - 0.0
24/01:00am 12.3 4.3 9.0 80 1.7 E 41 57 22 31 1020.6 - 0.0
24/12:30am 12.2 4.2 9.0 81 1.6 E 41 63 22 34 1020.7 - 0.0
24/12:00am 12.2 4.2 9.0 81 1.6 E 41 59 22 32 1021.1 1021.1 0.0
 
Date/Time
EDT
Temp
°C
App
Temp
°C
Dew
Point
Rel
Hum
%
Delta-T
°C
Wind Press
QNH
hPa
Press
MSL
hPa
Rain
since 9 am
mm
Dir
 
Spd
km/h
Gust
km/h
Spd
kts
Gust
kts
23/11:30pm 12.2 5.3 9.0 81 1.6 ENE 35 59 19 32 1021.4 - 0.0
23/11:13pm 12.2 6.4 9.4 83 1.4 E 30 57 16 31 1021.4 - 0.0
23/11:00pm 12.1 5.6 9.1 82 1.5 E 33 44 18 24 1021.8 - 0.0
23/10:48pm 12.3 5.9 9.3 82 1.5 E 33 52 18 28 1021.8 - 0.0
23/10:30pm 12.4 6.0 9.4 82 1.5 ENE 33 48 18 26 1022.2 - 0.0
23/10:00pm 12.4 6.5 9.2 81 1.6 ENE 30 41 16 22 1022.4 - 0.0
23/09:30pm 12.6 7.2 9.6 82 1.5 ENE 28 39 15 21 1022.5 - 0.0
23/09:00pm 12.3 7.7 9.7 84 1.3 E 24 32 13 17 1022.2 1022.2 0.0
23/08:30pm 12.5 8.3 9.7 83 1.4 ENE 22 28 12 15 1022.1 - 0.0
23/08:00pm 12.6 8.8 9.8 83 1.4 E 20 30 11 16 1021.9 - 0.0
23/07:30pm 13.2 8.6 9.8 80 1.7 E 24 32 13 17 1022.0 - 0.0
23/07:00pm 13.9 8.7 10.1 78 2.0 ENE 28 35 15 19 1021.9 - 0.0
23/06:30pm 14.4 8.7 9.8 74 2.4 ENE 30 41 16 22 1021.8 - 0.0
23/06:00pm 15.1 9.2 10.3 73 2.5 ENE 32 41 17 22 1021.8 1021.8 0.0
23/05:30pm 15.8 10.6 10.1 69 3.0 E 28 41 15 22 1021.8 - 0.0
23/05:00pm 16.3 10.7 10.2 67 3.2 ENE 30 39 16 21 1021.8 - 0.0
23/04:30pm 16.5 10.5 10.1 66 3.4 ENE 32 39 17 21 1021.8 - 0.0
23/04:00pm 17.0 11.7 11.3 69 3.1 NE 30 37 16 20 1021.9 - 0.0
23/03:30pm 16.8 11.1 11.3 70 3.0 ENE 32 39 17 21 1022.1 - 0.0
23/03:00pm 17.2 12.1 11.9 71 2.9 NE 30 39 16 21 1022.3 1022.3 0.0
23/02:30pm 16.9 11.9 12.2 74 2.6 NE 30 41 16 22 1022.5 - 0.0
23/02:00pm 16.8 12.3 12.5 76 2.4 NE 28 37 15 20 1022.5 - 0.0
23/01:30pm 16.6 12.3 12.2 75 2.4 NE 26 35 14 19 1022.5 - 0.0
23/01:00pm 15.3 10.3 12.1 81 1.7 NE 30 35 16 19 1022.7 - 0.0
23/12:30pm 16.2 10.8 12.2 77 2.2 NE 32 41 17 22 1022.6 - 0.0
23/12:00pm 17.2 11.6 11.5 69 3.1 NE 32 41 17 22 1022.4 1022.4 0.0
23/11:30am 17.3 12.3 11.1 67 3.3 ENE 28 39 15 21 1022.6 - 0.0
23/11:00am 17.0 11.2 10.8 67 3.3 ENE 32 43 17 23 1022.5 - 0.0
23/10:30am 16.5 11.0 10.4 67 3.2 ENE 30 44 16 24 1022.4 - 0.0
23/10:00am 16.3 13.9 13.8 85 1.4 NE 19 28 10 15 1022.6 - 0.0
23/09:30am 15.0 13.4 13.9 93 0.6 NE 15 20 8 11 1022.4 - 0.0
23/09:00am 14.3 13.5 13.0 92 0.7 E 9 13 5 7 1022.1 1022.1 0.0
23/08:30am 13.7 12.2 11.9 89 1.0 E 11 15 6 8 1021.9 - 0.0
23/08:00am 13.0 11.5 11.9 93 0.6 SSE 11 15 6 8 1021.2 - 0.0
23/07:30am 12.1 10.0 11.3 95 0.4 S 13 17 7 9 1020.9 - 0.0
23/07:00am 11.2 8.3 10.9 98 0.2 S 17 20 9 11 1020.5 - 0.0
23/06:30am 10.5 8.2 10.3 99 0.1 S 13 15 7 8 1020.2 - 0.0
23/06:00am 10.1 7.2 9.8 98 0.2 S 15 17 8 9 1019.5 1019.5 0.0
23/05:30am 10.6 7.5 10.3 98 0.2 S 17 20 9 11 1018.9 - 0.0
23/05:00am 10.7 7.6 10.2 97 0.3 S 17 20 9 11 1018.6 - 0.0
23/04:30am 11.2 8.6 10.6 96 0.3 S 15 17 8 9 1018.2 - 0.0
23/04:00am 11.4 8.4 10.8 96 0.3 S 17 20 9 11 1017.9 - 0.0
23/03:30am 11.5 8.5 10.6 94 0.5 S 17 20 9 11 1017.6 - 0.0
23/03:00am 12.5 9.7 11.2 92 0.7 S 17 20 9 11 1017.6 1017.6 0.0
23/02:30am 12.9 8.1 11.6 92 0.7 SSW 28 32 15 17 1017.1 - 0.0
23/02:00am 12.9 8.9 11.8 93 0.6 SSW 24 32 13 17 1017.1 - 0.0
23/01:30am 13.0 9.4 11.7 92 0.7 SSW 22 28 12 15 1017.3 - 0.0
23/01:00am 13.2 8.9 11.9 92 0.7 SSW 26 32 14 17 1017.3 - 0.0
23/12:30am 13.2 9.2 11.9 92 0.7 SSW 24 32 13 17 1017.4 - 0.0
23/12:00am 13.1 9.1 11.8 92 0.7 SSW 24 35 13 19 1017.6 1017.6 0.0
 
Date/Time
EDT
Temp
°C
App
Temp
°C
Dew
Point
Rel
Hum
%
Delta-T
°C
Wind Press
QNH
hPa
Press
MSL
hPa
Rain
since 9 am
mm
Dir
 
Spd
km/h
Gust
km/h
Spd
kts
Gust
kts
22/11:30pm 13.4 10.4 12.5 94 0.5 SSW 20 24 11 13 1017.9 - 0.0
22/11:00pm 13.0 10.1 12.2 95 0.4 SW 19 22 10 12 1018.1 - 0.0
22/10:30pm 12.4 10.1 11.8 96 0.3 SW 15 17 8 9 1017.9 - 0.0
22/10:00pm 12.8 10.3 12.2 96 0.3 SSW 17 19 9 10 1017.8 - 0.0
22/09:30pm 13.4 10.6 12.5 94 0.5 SW 19 24 10 13 1017.3 - 0.0
22/09:00pm 11.8 10.2 11.5 98 0.2 SW 11 15 6 8 1017.6 1017.6 0.0
22/08:30pm 11.4 10.0 10.8 96 0.3 WNW 9 11 5 6 1017.1 - 0.0
22/08:00pm 12.9 11.8 11.8 93 0.6 WNW 9 11 5 6 1016.9 - 0.0
22/07:30pm 14.5 13.6 12.5 88 1.1 WSW 9 9 5 5 1016.8 - 0.0
22/07:00pm 15.1 13.9 12.8 86 1.3 W 11 15 6 8 1016.9 - 0.0
22/06:30pm 15.2 14.8 12.3 83 1.6 N 6 11 3 6 1016.9 - 0.0
22/06:00pm 15.4 15.4 12.3 82 1.7 NE 4 32 2 17 1016.6 1016.6 0.0
22/05:57pm 15.4 15.4 12.3 82 1.7 NE 4 32 2 17 1016.4 - 0.0
22/05:50pm 15.3 11.8 12.2 82 1.7 E 22 32 12 17 1014.4 - 0.0
22/05:30pm 15.6 14.2 12.2 80 1.9 N 11 20 6 11 1016.4 - 0.0
22/05:16pm 15.4 12.3 12.3 82 1.7 ENE 20 32 11 17 1014.6 - 0.0
22/05:00pm 15.9 14.4 11.9 77 2.2 ENE 11 15 6 8 1016.6 - 0.0
22/04:30pm 15.6 15.0 12.2 80 1.9 SSE 7 32 4 17 1016.7 - 0.0
22/04:00pm 16.3 13.0 11.5 73 2.6 ENE 20 28 11 15 1016.6 - 0.0
22/03:30pm 17.2 13.6 11.9 71 2.9 ENE 22 28 12 15 1016.4 - 0.0
22/03:00pm 16.9 12.0 11.4 70 3.0 ENE 28 33 15 18 1016.6 1016.6 0.0
22/02:30pm 17.4 12.2 11.7 69 3.1 ENE 30 35 16 19 1016.8 - 0.0
22/02:00pm 17.6 12.4 11.6 68 3.3 ENE 30 39 16 21 1017.1 - 0.0
22/01:36pm 17.8 12.2 11.6 67 3.4 ENE 32 50 17 27 1017.3 - 0.0
22/01:30pm 18.0 12.0 12.2 69 3.2 ENE 35 44 19 24 1017.4 - 0.0
22/01:00pm 17.2 11.3 11.2 68 3.2 ENE 33 41 18 22 1017.6 - 0.0
22/12:30pm 16.3 10.5 11.5 73 2.6 ENE 33 41 18 22 1018.0 - 0.0
22/12:00pm 17.1 11.6 11.8 71 2.9 ENE 32 43 17 23 1018.6 1018.6 0.0
22/11:30am 17.3 11.2 11.6 69 3.1 E 35 46 19 25 1019.2 - 0.0
22/11:00am 17.4 11.4 12.1 71 2.9 E 35 46 19 25 1019.8 - 0.0
22/10:30am 16.8 11.0 10.9 68 3.2 E 32 44 17 24 1020.2 - 0.0
22/10:00am 16.3 9.6 11.0 71 2.8 ENE 37 48 20 26 1020.3 - 0.0
22/09:45am 16.4 11.0 10.9 70 2.9 E 30 50 16 27 1020.3 - 0.0
22/09:30am 16.1 9.8 11.1 72 2.7 ENE 35 50 19 27 1020.2 - 0.0
22/09:00am 15.7 9.7 10.9 73 2.5 E 33 48 18 26 1020.6 1020.6 0.0
22/08:51am 15.6 10.1 10.6 72 2.6 ENE 30 48 16 26 1020.8 - 0.0
22/08:30am 15.4 10.7 10.8 74 2.4 E 26 35 14 19 1021.2 - 0.0
22/08:00am 14.5 9.3 10.1 75 2.3 ENE 28 41 15 22 1021.1 - 0.0
22/07:30am 13.7 8.4 9.9 78 2.0 E 28 39 15 21 1020.9 - 0.0
22/07:00am 13.0 8.1 9.8 81 1.6 E 26 35 14 19 1021.3 - 0.0
22/06:30am 12.6 7.2 9.6 82 1.5 E 28 41 15 22 1021.5 - 0.0
22/06:00am 12.5 7.5 9.7 83 1.4 E 26 39 14 21 1021.5 1021.5 0.0
22/05:30am 12.4 7.4 9.6 83 1.4 E 26 35 14 19 1021.3 - 0.0
22/05:00am 12.4 6.6 9.6 83 1.4 E 30 41 16 22 1021.3 - 0.0
22/04:48am 12.5 6.8 9.7 83 1.4 E 30 48 16 26 1021.5 - 0.0
22/04:30am 12.5 6.8 9.7 83 1.4 E 30 39 16 21 1021.8 - 0.0
22/04:16am 12.7 6.6 9.9 83 1.4 E 32 50 17 27 1022.0 - 0.0
22/04:00am 12.5 6.4 9.7 83 1.4 E 32 48 17 26 1021.9 - 0.0
22/03:30am 12.7 6.5 10.1 84 1.3 E 33 43 18 23 1022.7 - 0.0
22/03:00am 13.2 7.1 9.8 80 1.7 ENE 32 43 17 23 1023.1 1023.1 0.0
22/02:30am 13.1 6.7 9.4 78 1.9 ENE 33 50 18 27 1023.6 - 0.0
22/02:00am 13.0 5.8 9.3 78 1.9 E 37 50 20 27 1023.9 - 0.0
22/01:52am 13.0 6.6 9.3 78 1.9 E 33 52 18 28 1023.9 - 0.0
22/01:30am 12.8 6.0 9.3 79 1.8 E 35 46 19 25 1024.4 - 0.0
22/01:25am 12.9 6.1 9.2 78 1.9 E 35 54 19 29 1024.6 - 0.0
22/01:00am 12.8 6.4 9.3 79 1.8 E 33 46 18 25 1024.8 - 0.0
22/12:30am 12.8 6.4 9.4 80 1.7 E 33 48 18 26 1025.6 - 0.0
22/12:00am 12.7 6.7 10.2 85 1.3 E 32 43 17 23 1025.8 1025.8 0.0
 
Date/Time
EDT
Temp
°C
App
Temp
°C
Dew
Point
Rel
Hum
%
Delta-T
°C
Wind Press
QNH
hPa
Press
MSL
hPa
Rain
since 9 am
mm
Dir
 
Spd
km/h
Gust
km/h
Spd
kts
Gust
kts
21/11:30pm 12.8 6.7 10.3 85 1.3 E 33 52 18 28 1026.1 - 0.0
21/11:22pm 12.9 7.0 10.3 84 1.3 ENE 32 52 17 28 1026.1 - 0.0
21/11:00pm 12.6 7.0 10.1 85 1.3 ENE 30 41 16 22 1026.6 - 0.0
21/10:30pm 12.5 6.9 10.0 85 1.3 ENE 30 44 16 24 1026.7 - 0.0
21/10:00pm 12.4 7.1 10.0 85 1.2 ENE 28 39 15 21 1027.0 - 0.0
21/09:30pm 12.6 7.0 10.1 85 1.3 ENE 30 39 16 21 1027.2 - 0.0
21/09:00pm 12.7 6.7 10.1 84 1.3 E 32 46 17 25 1026.8 1026.8 0.0
21/08:30pm 12.5 7.2 10.0 85 1.3 ENE 28 44 15 24 1027.0 - 0.0
21/08:00pm 12.6 6.5 9.8 83 1.4 E 32 46 17 25 1027.2 - 0.0

Other Formats:

Comma delimited format used in spreadsheet applications
http://www.bom.gov.au/fwo/IDT60801/IDT60801.94953.axf

JavaScript Object Notation format (JSON) in row-major order
http://www.bom.gov.au/fwo/IDT60801/IDT60801.94953.json